Time;durP1;ratioP1;P1;durP2;ratioP2;P2;SDS_P1;SDS_P2;PMS_P1;PMS_P2;Temp;Humidity;BMP_temperature;BMP_pressure;BME280_temperature;BME280_humidity;BME280_pressure;Samples;Min_cycle;Max_cycle;Signal;HPM_P1;HPM_P2
2022/05/22 03:01:18;;;;;;;0.60;0.60;;;16.70;68.60;;;;;;5767415;23;20486;-69
2022/05/22 03:03:44;;;;;;;0.70;0.70;;;16.70;68.60;;;;;;4973769;28;20485;-69
2022/05/22 03:08:56;;;;;;;0.70;0.50;;;16.70;68.70;;;;;;4973680;28;20405;-70
2022/05/22 03:11:23;;;;;;;0.70;0.60;;;16.70;68.60;;;;;;4973583;28;20501;-69
2022/05/22 03:13:49;;;;;;;0.80;0.70;;;16.70;68.50;;;;;;4974046;28;20471;-70
2022/05/22 03:16:17;;;;;;;0.70;0.60;;;16.70;68.10;;;;;;4978589;28;20949;-69
2022/05/22 03:18:44;;;;;;;0.70;0.60;;;16.60;68.20;;;;;;4977625;28;20450;-69
2022/05/22 03:21:12;;;;;;;0.70;0.60;;;16.60;68.30;;;;;;4977496;28;20524;-70
2022/05/22 03:23:39;;;;;;;0.70;0.60;;;16.50;68.20;;;;;;4977155;28;20828;-69
2022/05/22 03:26:09;;;;;;;0.70;0.57;;;16.50;68.10;;;;;;4977311;28;20446;-70
2022/05/22 03:28:36;;;;;;;0.70;0.60;;;16.40;68.50;;;;;;4977332;28;20556;-70
2022/05/22 03:31:03;;;;;;;0.60;0.50;;;16.30;68.50;;;;;;4976976;28;20474;-71
2022/05/22 03:33:31;;;;;;;0.70;0.60;;;16.30;68.50;;;;;;4977312;28;20446;-70
2022/05/22 03:35:58;;;;;;;0.70;0.60;;;16.20;68.40;;;;;;4977481;28;20524;-70
2022/05/22 03:38:24;;;;;;;0.80;0.70;;;16.20;68.40;;;;;;4976905;28;20826;-69
2022/05/22 03:40:52;;;;;;;0.70;0.67;;;16.10;68.30;;;;;;4976769;28;21052;-71
2022/05/22 03:43:19;;;;;;;0.70;0.70;;;16.00;68.30;;;;;;4977331;28;20493;-70
2022/05/22 03:45:46;;;;;;;0.77;0.67;;;15.90;68.40;;;;;;4977505;28;20450;-70
2022/05/22 03:48:13;;;;;;;0.70;0.70;;;15.80;68.40;;;;;;4976940;28;20539;-70
2022/05/22 03:50:41;;;;;;;0.70;0.70;;;15.80;68.60;;;;;;4976982;28;20454;-70
2022/05/22 03:53:08;;;;;;;0.80;0.80;;;15.80;68.90;;;;;;4976630;28;20966;-70
2022/05/22 03:55:35;;;;;;;0.80;0.70;;;15.70;69.00;;;;;;4977689;28;20450;-70
2022/05/22 03:58:02;;;;;;;0.83;0.83;;;15.70;69.00;;;;;;4976820;28;20442;-70
2022/05/22 04:00:29;;;;;;;0.80;0.80;;;15.70;69.00;;;;;;4976678;28;20519;-70
2022/05/22 04:02:56;;;;;;;0.87;0.87;;;15.70;69.10;;;;;;4976358;28;20493;-70
2022/05/22 04:05:22;;;;;;;0.70;0.70;;;15.70;69.30;;;;;;4976658;28;20450;-69
2022/05/22 04:07:50;;;;;;;0.80;0.80;;;15.70;69.40;;;;;;4976568;28;20481;-69
2022/05/22 04:10:18;;;;;;;0.90;0.90;;;15.70;69.30;;;;;;4976763;28;20457;-70
2022/05/22 04:12:45;;;;;;;0.90;0.90;;;15.70;69.40;;;;;;4976590;28;20528;-70
2022/05/22 04:15:18;;;;;;;1.00;1.00;;;15.70;69.40;;;;;;4976444;28;20450;-70
2022/05/22 04:17:45;;;;;;;0.97;0.97;;;15.80;69.40;;;;;;4976611;28;20525;-70
2022/05/22 04:20:12;;;;;;;0.70;0.70;;;15.80;69.30;;;;;;4976470;28;20508;-70
2022/05/22 04:25:11;;;;;;;0.80;0.80;;;15.80;69.30;;;;;;4976392;28;20474;-70
2022/05/22 04:25:26;;;;;;;0.70;0.70;;;15.80;69.40;;;;;;4975512;28;20422;-70
2022/05/22 04:27:53;;;;;;;0.70;0.70;;;15.80;69.60;;;;;;4976262;28;20522;-71
2022/05/22 04:30:21;;;;;;;0.70;0.70;;;15.80;69.80;;;;;;4975932;28;20959;-70
2022/05/22 04:32:49;;;;;;;0.70;0.70;;;15.80;69.90;;;;;;4976346;28;20520;-69
2022/05/22 04:35:16;;;;;;;0.80;0.80;;;15.80;70.20;;;;;;4976375;28;20449;-70
2022/05/22 04:37:43;;;;;;;0.70;0.70;;;15.80;70.30;;;;;;4976945;28;20797;-70
2022/05/22 04:40:12;;;;;;;0.70;0.70;;;15.90;70.30;;;;;;4976091;28;20450;-70
2022/05/22 04:42:41;;;;;;;0.70;0.70;;;16.00;70.40;;;;;;4976082;28;20524;-70
2022/05/22 04:45:10;;;;;;;0.70;0.60;;;16.00;70.60;;;;;;4976108;28;20481;-71
2022/05/22 04:47:38;;;;;;;0.70;0.70;;;16.00;70.80;;;;;;4976026;28;20477;-70
2022/05/22 04:50:06;;;;;;;0.70;0.70;;;16.10;70.90;;;;;;4976083;28;20523;-71
2022/05/22 04:52:33;;;;;;;0.70;0.60;;;16.30;70.90;;;;;;4975987;28;20552;-70
2022/05/22 04:55:00;;;;;;;1.27;0.60;;;16.50;70.60;;;;;;4975955;28;20449;-70
2022/05/22 04:57:26;;;;;;;0.70;0.60;;;16.70;70.00;;;;;;4976034;28;20509;-69
2022/05/22 04:59:55;;;;;;;0.67;0.60;;;16.60;70.00;;;;;;4975986;28;20505;-70
2022/05/22 05:02:23;;;;;;;0.80;0.60;;;16.70;70.20;;;;;;4975722;28;20481;-70
2022/05/22 05:04:52;;;;;;;0.67;0.57;;;16.90;70.00;;;;;;4975637;28;20544;-71
2022/05/22 05:07:19;;;;;;;0.70;0.60;;;17.10;70.00;;;;;;4975367;28;20478;-70
2022/05/22 05:09:46;;;;;;;0.70;0.60;;;17.30;69.10;;;;;;4975371;28;20505;-70
2022/05/22 05:12:13;;;;;;;0.83;0.73;;;17.50;67.90;;;;;;4975657;28;20556;-71
2022/05/22 05:14:39;;;;;;;0.70;0.50;;;17.50;67.00;;;;;;4975810;28;20449;-70
2022/05/22 05:17:09;;;;;;;0.70;0.70;;;17.70;67.20;;;;;;4975543;28;20450;-70
2022/05/22 05:19:36;;;;;;;0.90;0.70;;;17.90;67.00;;;;;;4975472;28;20537;-71
2022/05/22 05:22:03;;;;;;;0.70;0.70;;;18.10;66.40;;;;;;4975249;28;20885;-71
2022/05/22 05:24:29;;;;;;;0.70;0.60;;;18.10;66.40;;;;;;4975373;28;20450;-70
2022/05/22 05:26:56;;;;;;;0.60;0.50;;;18.10;65.90;;;;;;4974889;28;21060;-70
2022/05/22 05:29:24;;;;;;;0.70;0.50;;;18.00;65.70;;;;;;4974984;28;20945;-71
2022/05/22 05:31:51;;;;;;;0.70;0.60;;;18.00;66.30;;;;;;4975070;28;20477;-71
2022/05/22 05:34:19;;;;;;;0.60;0.50;;;17.90;65.60;;;;;;4975323;28;20449;-69
2022/05/22 05:36:46;;;;;;;0.70;0.60;;;17.50;66.50;;;;;;4974427;28;20862;-70
2022/05/22 05:39:14;;;;;;;0.63;0.53;;;17.70;67.60;;;;;;4975217;28;20633;-70
2022/05/22 05:41:40;;;;;;;0.80;0.70;;;17.80;66.90;;;;;;4974847;28;21012;-71
2022/05/22 05:44:08;;;;;;;0.60;0.50;;;17.50;67.50;;;;;;4974945;28;20466;-70
2022/05/22 05:46:38;;;;;;;0.70;0.63;;;17.40;68.40;;;;;;4975118;28;20747;-71
2022/05/22 05:49:06;;;;;;;0.70;0.60;;;17.50;68.30;;;;;;4975605;28;20529;-71
2022/05/22 05:51:36;;;;;;;0.60;0.50;;;17.80;68.70;;;;;;4974895;28;20492;-71
2022/05/22 05:54:03;;;;;;;0.70;0.60;;;18.00;67.20;;;;;;4974988;28;20524;-70
2022/05/22 05:56:29;;;;;;;0.60;0.50;;;18.20;66.40;;;;;;4974879;28;20512;-70
2022/05/22 05:58:56;;;;;;;0.60;0.60;;;18.50;66.50;;;;;;4974927;28;20446;-70
2022/05/22 06:01:24;;;;;;;0.67;0.60;;;18.60;66.20;;;;;;4974754;28;20508;-70
2022/05/22 06:03:51;;;;;;;0.70;0.60;;;18.80;65.80;;;;;;4974619;28;21045;-70
2022/05/22 06:06:18;;;;;;;0.70;0.60;;;18.80;65.50;;;;;;4974724;28;20513;-71
2022/05/22 06:08:46;;;;;;;0.70;0.63;;;18.70;65.20;;;;;;4974753;28;20485;-69
2022/05/22 06:11:13;;;;;;;0.70;0.60;;;18.60;65.00;;;;;;4974335;28;20538;-71
2022/05/22 06:13:40;;;;;;;0.70;0.70;;;18.20;66.80;;;;;;4974356;28;20861;-70
2022/05/22 06:16:07;;;;;;;0.80;0.70;;;18.60;67.10;;;;;;4974652;28;20536;-70
2022/05/22 06:18:35;;;;;;;0.70;0.60;;;18.90;66.50;;;;;;4974358;28;20941;-70
2022/05/22 06:21:08;;;;;;;0.70;0.70;;;19.30;64.00;;;;;;4974377;28;20504;-70
2022/05/22 06:23:35;;;;;;;0.70;0.60;;;19.40;63.60;;;;;;4974470;28;20442;-70
2022/05/22 06:26:04;;;;;;;0.70;0.60;;;19.50;63.50;;;;;;4974443;28;20446;-70
2022/05/22 06:28:30;;;;;;;0.70;0.60;;;19.50;63.10;;;;;;4974327;28;20519;-70
2022/05/22 06:30:57;;;;;;;0.80;0.70;;;19.50;63.20;;;;;;4974239;28;20537;-71
2022/05/22 06:33:24;;;;;;;0.67;0.53;;;19.50;63.80;;;;;;4974013;28;20515;-70
2022/05/22 06:35:51;;;;;;;0.93;0.60;;;19.60;63.00;;;;;;4974310;28;20446;-71
2022/05/22 06:40:58;;;;;;;0.70;0.60;;;19.80;62.70;;;;;;4973646;28;20450;-71
2022/05/22 06:43:26;;;;;;;0.70;0.60;;;20.20;61.80;;;;;;4974563;28;20445;-70
2022/05/22 06:45:53;;;;;;;0.70;0.60;;;20.60;61.40;;;;;;4973833;28;20446;-70
2022/05/22 06:48:19;;;;;;;0.70;0.67;;;20.70;59.20;;;;;;4974383;28;20939;-70
2022/05/22 06:50:46;;;;;;;0.70;0.60;;;20.80;59.30;;;;;;4974125;28;20469;-71
2022/05/22 06:53:13;;;;;;;0.70;0.60;;;21.00;59.50;;;;;;4974217;28;20516;-70
2022/05/22 06:55:40;;;;;;;0.80;0.60;;;21.30;58.50;;;;;;4974188;28;20450;-70
2022/05/22 06:58:07;;;;;;;1.53;0.50;;;20.70;59.90;;;;;;4973948;28;20454;-70
2022/05/22 07:00:35;;;;;;;0.70;0.60;;;21.10;61.00;;;;;;4974119;28;20450;-71
2022/05/22 07:03:02;;;;;;;0.70;0.60;;;21.10;58.90;;;;;;4973557;28;20466;-70
2022/05/22 07:05:29;;;;;;;0.67;0.57;;;21.40;59.50;;;;;;4973632;28;20489;-71
2022/05/22 07:07:56;;;;;;;0.60;0.60;;;21.30;58.70;;;;;;4973619;28;20992;-70
2022/05/22 07:11:38;;;;;;;0.70;0.60;;;21.30;58.80;;;;;;4973921;28;20520;-72
2022/05/22 07:13:09;;;;;;;0.60;0.50;;;21.50;59.10;;;;;;4973567;28;20971;-70
2022/05/22 07:15:37;;;;;;;0.60;0.50;;;21.50;58.60;;;;;;4974701;28;20481;-71
2022/05/22 07:18:04;;;;;;;0.70;0.50;;;21.30;58.40;;;;;;4973980;28;20454;-70
2022/05/22 07:20:31;;;;;;;0.90;0.60;;;21.00;56.80;;;;;;4973527;28;20510;-71
2022/05/22 07:22:58;;;;;;;0.70;0.60;;;20.90;59.70;;;;;;4973927;28;20473;-71
2022/05/22 07:25:26;;;;;;;2.53;0.80;;;21.00;58.20;;;;;;4973889;28;20497;-70
2022/05/22 07:27:53;;;;;;;0.60;0.50;;;21.00;57.60;;;;;;4973531;28;20489;-71
2022/05/22 07:30:19;;;;;;;0.87;0.67;;;21.10;59.10;;;;;;4973522;28;20454;-70
2022/05/22 07:32:47;;;;;;;0.70;0.53;;;21.20;57.60;;;;;;4973567;28;20528;-71
2022/05/22 07:35:14;;;;;;;0.80;0.70;;;21.10;58.00;;;;;;4973413;28;20446;-70
2022/05/22 07:37:41;;;;;;;0.70;0.60;;;21.30;57.60;;;;;;4973728;28;20496;-70
2022/05/22 07:40:08;;;;;;;0.63;0.60;;;21.40;58.20;;;;;;4973212;28;20438;-69
2022/05/22 07:42:35;;;;;;;0.80;0.80;;;20.90;57.90;;;;;;4973536;28;20473;-69
2022/05/22 07:45:02;;;;;;;0.70;0.60;;;20.90;59.20;;;;;;4973581;28;20524;-70
2022/05/22 07:47:28;;;;;;;0.70;0.60;;;20.90;59.00;;;;;;4973232;28;20934;-69
2022/05/22 07:52:41;;;;;;;0.80;0.80;;;21.20;60.00;;;;;;4973387;28;20536;-70
2022/05/22 07:55:14;;;;;;;1.30;0.60;;;21.50;57.60;;;;;;4973701;28;20548;-70
2022/05/22 07:57:41;;;;;;;0.60;0.60;;;21.70;57.80;;;;;;4974090;28;20582;-71
2022/05/22 08:00:09;;;;;;;0.70;0.60;;;21.50;57.40;;;;;;4973853;28;20525;-70
2022/05/22 08:02:35;;;;;;;0.63;0.60;;;21.60;58.10;;;;;;4977141;28;20478;-70
2022/05/22 08:05:04;;;;;;;0.60;0.50;;;21.50;58.70;;;;;;4977200;28;20453;-70
2022/05/22 08:07:31;;;;;;;0.70;0.60;;;21.70;57.20;;;;;;4977144;28;20501;-72
2022/05/22 08:09:58;;;;;;;0.80;0.60;;;21.70;58.70;;;;;;4977096;28;20450;-73
2022/05/22 08:12:25;;;;;;;0.70;0.60;;;21.90;57.90;;;;;;4976938;28;20481;-71
2022/05/22 08:14:52;;;;;;;0.60;0.50;;;21.90;57.90;;;;;;4976921;28;20533;-72
2022/05/22 08:17:21;;;;;;;0.70;0.57;;;21.80;59.30;;;;;;4976589;28;21000;-72
2022/05/22 08:19:48;;;;;;;0.60;0.50;;;21.80;58.40;;;;;;4976884;28;20556;-72
2022/05/22 08:22:17;;;;;;;0.70;0.60;;;21.90;56.90;;;;;;4976719;28;20473;-72
2022/05/22 08:24:44;;;;;;;1.20;0.60;;;22.00;58.60;;;;;;4976945;28;20595;-72
2022/05/22 08:27:11;;;;;;;0.70;0.60;;;22.00;56.10;;;;;;4976617;28;20446;-72
2022/05/22 08:29:38;;;;;;;0.70;0.60;;;21.90;58.90;;;;;;4976493;28;20606;-72
2022/05/22 08:32:05;;;;;;;0.70;0.60;;;22.00;57.20;;;;;;4976418;28;20470;-72
2022/05/22 08:34:32;;;;;;;0.60;0.60;;;22.00;56.80;;;;;;4976569;28;20449;-73
2022/05/22 08:36:59;;;;;;;0.67;0.50;;;22.00;57.30;;;;;;4976398;28;20445;-72
2022/05/22 08:39:27;;;;;;;0.70;0.60;;;22.20;57.80;;;;;;4976535;28;20446;-72
2022/05/22 08:41:58;;;;;;;0.67;0.57;;;22.40;56.90;;;;;;4975955;28;21045;-72
2022/05/22 08:44:32;;;;;;;1.00;0.60;;;22.80;58.70;;;;;;4976070;28;20968;-72
2022/05/22 08:47:01;;;;;;;0.70;0.60;;;22.90;56.70;;;;;;4975922;28;20550;-71
2022/05/22 08:49:32;;;;;;;0.63;0.60;;;22.90;55.60;;;;;;4975819;28;20574;-73
2022/05/22 08:52:09;;;;;;;0.70;0.60;;;23.00;56.40;;;;;;4976194;28;20545;-72
2022/05/22 08:54:41;;;;;;;0.60;0.50;;;23.00;56.10;;;;;;4976176;28;20892;-72
2022/05/22 09:00:05;;;;;;;0.60;0.60;;;23.10;55.50;;;;;;4976033;28;20421;-72
2022/05/22 09:02:36;;;;;;;0.90;0.60;;;23.40;54.40;;;;;;4975542;28;20482;-72
2022/05/22 09:05:05;;;;;;;0.60;0.57;;;23.20;55.70;;;;;;4975871;28;20443;-73
2022/05/22 09:07:45;;;;;;;0.80;0.60;;;23.50;55.20;;;;;;4975796;28;20484;-72
2022/05/22 09:10:18;;;;;;;0.60;0.60;;;23.90;55.30;;;;;;4975535;28;20906;-71
2022/05/22 09:13:04;;;;;;;0.67;0.50;;;24.10;54.50;;;;;;4974479;28;20536;-72
2022/05/22 09:15:40;;;;;;;0.60;0.50;;;24.00;53.90;;;;;;4976730;28;20518;-72
2022/05/22 09:18:14;;;;;;;0.60;0.57;;;24.10;52.60;;;;;;4975626;28;20434;-72
2022/05/22 09:20:49;;;;;;;0.70;0.70;;;24.20;54.50;;;;;;4975597;28;20521;-72
2022/05/22 09:23:29;;;;;;;0.70;0.60;;;24.50;54.70;;;;;;4976177;28;20433;-72
2022/05/22 09:26:05;;;;;;;0.70;0.53;;;24.80;53.70;;;;;;4976046;28;20431;-72
2022/05/22 09:28:43;;;;;;;0.60;0.50;;;24.80;52.50;;;;;;4975900;28;20470;-73
2022/05/22 09:31:18;;;;;;;0.90;0.70;;;24.70;52.00;;;;;;4975711;28;20565;-72
2022/05/22 09:33:52;;;;;;;0.60;0.50;;;24.50;50.60;;;;;;4975655;28;20980;-72
2022/05/22 09:36:29;;;;;;;0.60;0.50;;;24.60;51.70;;;;;;4975949;28;20434;-73
2022/05/22 09:39:08;;;;;;;0.60;0.57;;;24.90;51.30;;;;;;4976067;28;20434;-72
2022/05/22 09:41:55;;;;;;;0.70;0.50;;;24.80;51.60;;;;;;4975681;28;20465;-71
2022/05/22 09:44:54;;;;;;;0.60;0.50;;;24.60;51.10;;;;;;4975730;28;20441;-72
2022/05/22 09:47:43;;;;;;;0.70;0.60;;;24.00;53.30;;;;;;4975635;28;20520;-72
2022/05/22 09:50:20;;;;;;;0.60;0.50;;;24.00;52.80;;;;;;4975568;28;20466;-73
2022/05/22 09:52:54;;;;;;;0.70;0.60;;;24.20;53.40;;;;;;4976047;28;20466;-73
2022/05/22 09:55:28;;;;;;;0.70;0.60;;;24.30;50.60;;;;;;4975262;28;21038;-72
2022/05/22 09:58:10;;;;;;;0.90;0.60;;;24.30;53.60;;;;;;4975453;28;20433;-73
2022/05/22 10:00:44;;;;;;;0.60;0.50;;;24.70;52.10;;;;;;4975361;28;20438;-73
2022/05/22 10:03:18;;;;;;;0.70;0.60;;;24.40;50.10;;;;;;4975289;28;20517;-72
2022/05/22 10:05:53;;;;;;;0.70;0.60;;;24.00;51.30;;;;;;4975424;28;20498;-72
2022/05/22 10:08:32;;;;;;;1.27;0.53;;;24.30;52.40;;;;;;4974853;28;20905;-72
2022/05/22 10:11:09;;;;;;;0.70;0.50;;;24.50;50.60;;;;;;4975198;28;20480;-73
2022/05/22 10:13:51;;;;;;;0.60;0.60;;;24.50;51.00;;;;;;4975435;28;20426;-72
2022/05/22 10:16:33;;;;;;;0.60;0.50;;;24.20;50.90;;;;;;4975220;28;20437;-72
2022/05/22 10:19:11;;;;;;;0.60;0.50;;;24.20;47.30;;;;;;4974782;28;20844;-72
2022/05/22 10:21:47;;;;;;;0.70;0.50;;;24.40;46.00;;;;;;4974774;28;20532;-72
2022/05/22 10:24:28;;;;;;;0.60;0.50;;;24.60;46.20;;;;;;4974643;28;20850;-73
2022/05/22 10:27:15;;;;;;;0.60;0.50;;;24.90;46.00;;;;;;4974865;28;20434;-71
2022/05/22 10:29:49;;;;;;;0.60;0.50;;;24.90;44.30;;;;;;4974757;28;20466;-73
2022/05/22 10:32:21;;;;;;;0.70;0.60;;;25.20;45.40;;;;;;4974598;28;20461;-72
2022/05/22 10:34:55;;;;;;;0.70;0.50;;;25.60;45.70;;;;;;4974536;28;20906;-73
2022/05/22 10:37:27;;;;;;;0.60;0.53;;;25.50;43.70;;;;;;4974759;28;20429;-72
2022/05/22 10:39:54;;;;;;;0.80;0.50;;;25.40;48.10;;;;;;4974932;28;20486;-72
2022/05/22 10:45:22;;;;;;;0.70;0.60;;;25.60;48.50;;;;;;4974814;28;20418;-73
2022/05/22 10:47:50;;;;;;;0.70;0.60;;;25.90;47.40;;;;;;4975457;28;20770;-72
2022/05/22 10:50:21;;;;;;;0.60;0.60;;;26.30;46.40;;;;;;4974495;28;20493;-72
2022/05/22 10:52:48;;;;;;;0.60;0.60;;;26.50;46.40;;;;;;4974556;28;20438;-72
2022/05/22 10:55:39;;;;;;;0.70;0.60;;;26.00;48.20;;;;;;4974456;28;20438;-72
2022/05/22 10:58:21;;;;;;;0.70;0.57;;;25.70;48.70;;;;;;4974091;28;20918;-72
2022/05/22 11:00:54;;;;;;;0.60;0.50;;;25.40;49.30;;;;;;4974286;28;20469;-73
2022/05/22 11:03:26;;;;;;;0.83;0.50;;;25.20;47.30;;;;;;4974464;28;20438;-72
2022/05/22 11:05:53;;;;;;;0.60;0.50;;;24.90;48.40;;;;;;4974836;28;20455;-72
2022/05/22 11:08:28;;;;;;;0.60;0.50;;;25.20;48.40;;;;;;4974805;28;20446;-73
2022/05/22 11:10:57;;;;;;;0.70;0.60;;;25.30;48.50;;;;;;4974708;28;20509;-73
2022/05/22 11:13:25;;;;;;;0.60;0.53;;;25.00;47.20;;;;;;4974778;28;20509;-73
2022/05/22 11:15:53;;;;;;;0.60;0.50;;;25.10;49.60;;;;;;4974943;28;20520;-73
2022/05/22 11:18:23;;;;;;;0.70;0.50;;;25.30;47.70;;;;;;4974315;28;21005;-72
2022/05/22 11:20:55;;;;;;;0.60;0.50;;;25.00;48.00;;;;;;4974567;28;20474;-73
2022/05/22 11:23:49;;;;;;;0.60;0.50;;;25.00;48.80;;;;;;4974135;28;20434;-73
2022/05/22 11:26:26;;;;;;;0.63;0.50;;;25.10;48.60;;;;;;4973751;28;20430;-71
2022/05/22 11:29:06;;;;;;;0.60;0.50;;;25.10;48.30;;;;;;4974022;28;20557;-73
2022/05/22 11:31:50;;;;;;;0.60;0.57;;;25.30;46.50;;;;;;4973923;28;20905;-71
2022/05/22 11:34:49;;;;;;;0.60;0.50;;;25.20;49.10;;;;;;4974123;28;20493;-72
2022/05/22 11:37:28;;;;;;;0.70;0.60;;;25.10;48.40;;;;;;4977950;28;20437;-72
2022/05/22 11:40:05;;;;;;;1.47;0.60;;;25.30;48.20;;;;;;4978166;28;20442;-72
2022/05/22 11:42:35;;;;;;;0.60;0.50;;;25.60;48.30;;;;;;4977894;28;20822;-72
2022/05/22 11:45:18;;;;;;;0.67;0.53;;;25.50;49.10;;;;;;4977900;28;20541;-73
2022/05/22 11:48:16;;;;;;;0.60;0.57;;;25.90;47.00;;;;;;4977928;28;20487;-72
2022/05/22 11:50:51;;;;;;;0.70;0.60;;;26.00;47.50;;;;;;4977290;28;20911;-73
2022/05/22 11:53:58;;;;;;;0.70;0.60;;;26.30;45.60;;;;;;4977422;28;20508;-72
2022/05/22 11:56:45;;;;;;;0.60;0.50;;;26.70;46.10;;;;;;4976436;28;20802;-72
2022/05/22 11:59:33;;;;;;;0.60;0.50;;;27.30;45.80;;;;;;4977686;28;20430;-72
2022/05/22 12:02:11;;;;;;;0.67;0.60;;;27.60;43.10;;;;;;4977334;28;20486;-73
2022/05/22 12:05:09;;;;;;;0.70;0.60;;;27.70;41.90;;;;;;4977749;28;20426;-73
2022/05/22 12:08:12;;;;;;;0.60;0.60;;;27.60;43.70;;;;;;4977596;28;20492;-72
2022/05/22 12:10:44;;;;;;;0.70;0.60;;;27.90;45.10;;;;;;4960615;28;20489;-73
2022/05/22 12:13:20;;;;;;;0.60;0.50;;;28.00;44.10;;;;;;4977352;28;20438;-73
2022/05/22 12:15:55;;;;;;;0.60;0.50;;;28.20;43.80;;;;;;4977171;28;20488;-72
2022/05/22 12:18:41;;;;;;;0.70;0.60;;;28.30;43.10;;;;;;4977458;28;20434;-72
2022/05/22 12:21:18;;;;;;;0.70;0.60;;;28.50;43.80;;;;;;4977363;28;20516;-73
2022/05/22 12:23:52;;;;;;;0.60;0.50;;;28.00;45.20;;;;;;4977262;28;20554;-72
2022/05/22 12:26:19;;;;;;;0.60;0.50;;;27.80;45.70;;;;;;4976851;28;20913;-72
2022/05/22 12:28:50;;;;;;;0.67;0.60;;;28.10;46.50;;;;;;4976987;28;20516;-73
2022/05/22 12:31:22;;;;;;;0.60;0.50;;;28.00;45.10;;;;;;4976885;28;20466;-72
2022/05/22 12:33:50;;;;;;;0.70;0.67;;;27.20;45.10;;;;;;4977100;28;20434;-72
2022/05/22 12:36:24;;;;;;;0.60;0.50;;;26.80;48.60;;;;;;4976591;28;20831;-72
2022/05/22 12:38:59;;;;;;;0.60;0.50;;;26.90;47.80;;;;;;4976914;28;20445;-72
2022/05/22 12:41:45;;;;;;;0.67;0.50;;;26.60;46.90;;;;;;4976799;28;20866;-73
2022/05/22 12:44:12;;;;;;;0.70;0.60;;;26.50;46.80;;;;;;4976769;28;20496;-73
2022/05/22 12:46:40;;;;;;;0.70;0.60;;;26.50;46.80;;;;;;4976599;28;20521;-72
2022/05/22 12:49:11;;;;;;;0.70;0.60;;;26.60;47.30;;;;;;4976570;28;20537;-72
2022/05/22 12:51:42;;;;;;;0.60;0.60;;;27.00;46.30;;;;;;4977099;28;20556;-72
2022/05/22 12:54:13;;;;;;;0.77;0.60;;;27.30;46.80;;;;;;4976483;28;20805;-73
2022/05/22 12:56:41;;;;;;;0.70;0.60;;;27.40;46.60;;;;;;4976776;28;20462;-72
2022/05/22 12:59:20;;;;;;;0.70;0.60;;;27.30;46.40;;;;;;4976766;28;20545;-71
2022/05/22 13:01:49;;;;;;;0.67;0.60;;;27.30;47.60;;;;;;4976222;28;20457;-72
2022/05/22 13:04:28;;;;;;;0.60;0.50;;;27.00;46.30;;;;;;4977166;28;20445;-72
2022/05/22 13:07:01;;;;;;;0.70;0.60;;;26.50;46.50;;;;;;4976160;28;20851;-71
2022/05/22 13:09:38;;;;;;;0.70;0.60;;;26.60;48.60;;;;;;4976585;28;20517;-71
2022/05/22 13:12:09;;;;;;;0.60;0.53;;;26.70;47.60;;;;;;4976271;28;20537;-73
2022/05/22 13:14:43;;;;;;;0.67;0.57;;;26.90;47.40;;;;;;4976177;28;20489;-75
2022/05/22 13:17:10;;;;;;;0.70;0.60;;;27.30;46.10;;;;;;4976086;28;20474;-72
2022/05/22 13:19:50;;;;;;;0.63;0.60;;;27.70;45.60;;;;;;4976086;28;20458;-74
2022/05/22 13:22:29;;;;;;;0.70;0.60;;;27.10;46.30;;;;;;4976035;28;20525;-73
2022/05/22 13:24:57;;;;;;;0.70;0.60;;;27.10;44.90;;;;;;4975923;28;20434;-74
2022/05/22 13:27:30;;;;;;;0.60;0.50;;;26.80;46.40;;;;;;4975890;28;20461;-73
2022/05/22 13:30:01;;;;;;;0.70;0.60;;;26.90;45.90;;;;;;4975744;28;20477;-73
2022/05/22 13:32:34;;;;;;;0.70;0.60;;;26.70;45.70;;;;;;4975771;28;20469;-73
2022/05/22 13:35:03;;;;;;;0.60;0.50;;;26.10;45.50;;;;;;4975777;28;20446;-73
2022/05/22 13:37:33;;;;;;;0.67;0.60;;;26.00;46.90;;;;;;4975710;28;20505;-73
2022/05/22 13:40:05;;;;;;;0.70;0.60;;;26.20;45.80;;;;;;4975681;28;20446;-73
2022/05/22 13:43:16;;;;;;;0.70;0.60;;;26.50;45.10;;;;;;4975526;28;20466;-73
2022/05/22 13:46:22;;;;;;;0.70;0.60;;;26.50;45.70;;;;;;4975430;28;20887;-73
2022/05/22 13:49:19;;;;;;;0.70;0.60;;;26.90;45.70;;;;;;4941684;28;20458;-72
2022/05/22 13:54:48;;;;;;;0.60;0.57;;;26.90;46.10;;;;;;4976472;28;20442;-72
2022/05/22 13:57:18;;;;;;;0.80;0.50;;;26.90;44.80;;;;;;4975885;28;20518;-73
2022/05/22 13:59:49;;;;;;;0.60;0.60;;;27.10;45.90;;;;;;4975825;28;20446;-71
2022/05/22 14:02:21;;;;;;;0.90;0.60;;;27.30;47.10;;;;;;4975444;28;20484;-72
2022/05/22 14:04:49;;;;;;;0.70;0.60;;;27.60;45.50;;;;;;4975295;28;20426;-72
2022/05/22 14:07:27;;;;;;;0.80;0.70;;;28.00;43.80;;;;;;4975351;28;20442;-75
2022/05/22 14:09:56;;;;;;;0.60;0.50;;;28.40;44.90;;;;;;4975299;28;20565;-75
2022/05/22 14:12:28;;;;;;;0.80;0.60;;;28.40;42.90;;;;;;4975278;28;20481;-72
2022/05/22 14:14:54;;;;;;;0.60;0.60;;;28.60;44.20;;;;;;4975159;28;20446;-74
2022/05/22 14:17:31;;;;;;;0.70;0.57;;;28.70;43.90;;;;;;4975519;28;20458;-73
2022/05/22 14:20:08;;;;;;;1.20;0.60;;;29.00;44.00;;;;;;4975273;28;20438;-73
2022/05/22 14:22:35;;;;;;;0.70;0.60;;;29.00;42.90;;;;;;4975025;28;20477;-73
2022/05/22 14:25:05;;;;;;;0.70;0.60;;;29.00;42.90;;;;;;4975798;28;20512;-73
2022/05/22 14:27:38;;;;;;;0.90;0.60;;;29.10;41.10;;;;;;4975051;28;20470;-70
2022/05/22 14:30:14;;;;;;;0.70;0.60;;;29.20;41.90;;;;;;4974772;28;20465;-72
2022/05/22 14:32:42;;;;;;;0.70;0.60;;;29.30;40.80;;;;;;4974511;28;20869;-73
2022/05/22 14:35:15;;;;;;;0.90;0.63;;;29.50;40.40;;;;;;4974905;28;20457;-73
2022/05/22 14:37:43;;;;;;;1.27;0.60;;;29.70;40.60;;;;;;4974811;28;20435;-72
2022/05/22 14:40:18;;;;;;;0.70;0.60;;;29.80;41.20;;;;;;4974782;28;20449;-72
2022/05/22 14:42:49;;;;;;;0.60;0.50;;;29.90;40.40;;;;;;4974467;28;20906;-72
2022/05/22 14:45:23;;;;;;;0.60;0.60;;;30.00;42.30;;;;;;4974630;28;20520;-70
2022/05/22 14:47:49;;;;;;;0.60;0.50;;;30.20;39.90;;;;;;4974630;28;20457;-71
2022/05/22 14:50:19;;;;;;;0.60;0.60;;;30.30;40.20;;;;;;4974418;28;20482;-71
2022/05/22 14:52:50;;;;;;;0.60;0.50;;;30.20;40.20;;;;;;4974507;28;20470;-71
2022/05/22 14:55:21;;;;;;;0.60;0.50;;;30.10;39.90;;;;;;4974627;28;20435;-71
2022/05/22 14:57:53;;;;;;;0.70;0.60;;;30.00;39.10;;;;;;4974498;28;20449;-72
2022/05/22 15:00:24;;;;;;;0.87;0.67;;;30.00;41.10;;;;;;4974537;28;20536;-71
2022/05/22 15:02:55;;;;;;;0.70;0.60;;;29.90;40.90;;;;;;4974404;28;20458;-71
2022/05/22 15:05:23;;;;;;;0.70;0.60;;;29.50;41.00;;;;;;4974537;28;20501;-72
2022/05/22 15:07:52;;;;;;;0.60;0.50;;;29.30;41.80;;;;;;4974152;28;20942;-71
2022/05/22 15:10:30;;;;;;;0.60;0.60;;;29.30;42.30;;;;;;4974620;28;20492;-71
2022/05/22 15:13:00;;;;;;;0.70;0.67;;;29.20;43.00;;;;;;4974511;28;20850;-71
2022/05/22 15:15:28;;;;;;;0.70;0.60;;;28.70;42.30;;;;;;4975754;28;20468;-71
2022/05/22 15:18:02;;;;;;;0.60;0.50;;;28.30;43.50;;;;;;4974404;28;20449;-71
2022/05/22 15:20:32;;;;;;;0.70;0.60;;;28.20;44.50;;;;;;4974509;28;20430;-71
2022/05/22 15:25:49;;;;;;;0.70;0.60;;;28.00;43.90;;;;;;4974681;28;20458;-71
2022/05/22 15:28:28;;;;;;;0.63;0.50;;;28.00;44.00;;;;;;4974318;28;20454;-73
2022/05/22 15:31:13;;;;;;;0.70;0.53;;;27.60;43.60;;;;;;4974230;28;20493;-74
2022/05/22 15:33:48;;;;;;;0.60;0.50;;;27.50;45.00;;;;;;4974578;28;20497;-76
2022/05/22 15:36:28;;;;;;;0.60;0.60;;;27.60;45.00;;;;;;4975475;28;20430;-74
2022/05/22 15:38:58;;;;;;;0.70;0.60;;;27.60;44.10;;;;;;4977414;28;20439;-76
2022/05/22 15:41:30;;;;;;;0.70;0.50;;;27.40;44.70;;;;;;4977790;28;20469;-74
2022/05/22 15:44:32;;;;;;;0.70;0.60;;;27.40;45.00;;;;;;4976080;28;20438;-75
2022/05/22 15:47:02;;;;;;;0.70;0.60;;;27.30;45.10;;;;;;4968707;28;20457;-74
2022/05/22 15:52:17;;;;;;;0.60;0.50;;;27.00;45.70;;;;;;4974955;28;20453;-74
2022/05/22 15:54:45;;;;;;;0.60;0.50;;;26.90;45.40;;;;;;4975499;28;20542;-73
2022/05/22 15:57:13;;;;;;;0.70;0.60;;;26.80;45.80;;;;;;4975392;28;20450;-74
2022/05/22 15:59:40;;;;;;;0.70;0.60;;;26.70;46.30;;;;;;4974900;28;20458;-72
2022/05/22 16:02:14;;;;;;;0.70;0.60;;;26.70;46.60;;;;;;4974491;28;20528;-74
2022/05/22 16:04:43;;;;;;;0.60;0.50;;;26.70;46.80;;;;;;4974981;28;20770;-74
2022/05/22 16:07:11;;;;;;;0.70;0.60;;;26.50;47.50;;;;;;4975308;28;20458;-74
2022/05/22 16:09:38;;;;;;;0.70;0.50;;;26.40;47.10;;;;;;4975419;28;20470;-73
2022/05/22 16:12:06;;;;;;;0.67;0.50;;;26.30;46.70;;;;;;4975275;28;20498;-74
2022/05/22 16:14:34;;;;;;;0.90;0.57;;;26.40;46.70;;;;;;4975526;28;20453;-73
2022/05/22 16:17:01;;;;;;;0.70;0.60;;;26.40;46.80;;;;;;4975530;28;20512;-73
2022/05/22 16:19:34;;;;;;;0.70;0.60;;;26.40;46.70;;;;;;4974820;28;20822;-74
2022/05/22 16:22:00;;;;;;;0.70;0.60;;;26.40;47.00;;;;;;4976486;28;20825;-73
2022/05/22 16:24:27;;;;;;;0.70;0.60;;;26.40;46.70;;;;;;4977920;28;20838;-75
2022/05/22 16:26:55;;;;;;;0.60;0.50;;;26.40;47.20;;;;;;4979325;28;20462;-74
2022/05/22 16:29:22;;;;;;;0.60;0.53;;;26.40;46.30;;;;;;4979078;28;20446;-73
2022/05/22 16:31:50;;;;;;;0.60;0.50;;;26.20;47.30;;;;;;4978000;28;20542;-72
2022/05/22 16:34:22;;;;;;;0.70;0.50;;;25.90;47.20;;;;;;4977940;28;20509;-74